sensor_id;sensor_type;location;lat;lon;timestamp;P1;durP1;ratioP1;P2;durP2;ratioP2
44139;SDS011;29803;51.048;4.686;2023-02-28T00:01:59;17.95;;;7.32;;
44139;SDS011;29803;51.048;4.686;2023-02-28T00:04:29;16.13;;;7.55;;
44139;SDS011;29803;51.048;4.686;2023-02-28T00:07:00;16.38;;;7.43;;
44139;SDS011;29803;51.048;4.686;2023-02-28T00:09:30;19.50;;;8.18;;
44139;SDS011;29803;51.048;4.686;2023-02-28T00:12:01;23.88;;;7.80;;
44139;SDS011;29803;51.048;4.686;2023-02-28T00:14:40;14.18;;;8.20;;
44139;SDS011;29803;51.048;4.686;2023-02-28T00:17:11;18.15;;;7.97;;
44139;SDS011;29803;51.048;4.686;2023-02-28T00:19:41;13.32;;;7.22;;
44139;SDS011;29803;51.048;4.686;2023-02-28T00:22:11;19.15;;;8.25;;
44139;SDS011;29803;51.048;4.686;2023-02-28T00:24:42;17.98;;;8.00;;
44139;SDS011;29803;51.048;4.686;2023-02-28T00:27:13;14.88;;;7.90;;
44139;SDS011;29803;51.048;4.686;2023-02-28T00:29:45;17.10;;;8.40;;
44139;SDS011;29803;51.048;4.686;2023-02-28T00:32:16;17.02;;;8.10;;
44139;SDS011;29803;51.048;4.686;2023-02-28T00:34:48;15.45;;;8.52;;
44139;SDS011;29803;51.048;4.686;2023-02-28T00:37:19;16.30;;;7.95;;
44139;SDS011;29803;51.048;4.686;2023-02-28T00:39:49;16.98;;;7.88;;
44139;SDS011;29803;51.048;4.686;2023-02-28T00:42:20;17.25;;;8.27;;
44139;SDS011;29803;51.048;4.686;2023-02-28T00:44:50;17.40;;;8.32;;
44139;SDS011;29803;51.048;4.686;2023-02-28T00:47:21;15.57;;;8.80;;
44139;SDS011;29803;51.048;4.686;2023-02-28T00:49:52;15.85;;;8.38;;
44139;SDS011;29803;51.048;4.686;2023-02-28T00:52:22;18.13;;;8.65;;
44139;SDS011;29803;51.048;4.686;2023-02-28T00:54:53;19.77;;;9.18;;
44139;SDS011;29803;51.048;4.686;2023-02-28T00:57:24;21.30;;;9.73;;
44139;SDS011;29803;51.048;4.686;2023-02-28T00:59:54;18.33;;;8.77;;
44139;SDS011;29803;51.048;4.686;2023-02-28T01:02:25;20.30;;;8.88;;
44139;SDS011;29803;51.048;4.686;2023-02-28T01:04:55;20.80;;;10.02;;
44139;SDS011;29803;51.048;4.686;2023-02-28T01:07:26;16.00;;;8.93;;
44139;SDS011;29803;51.048;4.686;2023-02-28T01:09:57;18.15;;;9.15;;
44139;SDS011;29803;51.048;4.686;2023-02-28T01:12:27;19.30;;;8.93;;
44139;SDS011;29803;51.048;4.686;2023-02-28T01:14:58;20.58;;;9.27;;
44139;SDS011;29803;51.048;4.686;2023-02-28T01:17:28;18.13;;;9.02;;
44139;SDS011;29803;51.048;4.686;2023-02-28T01:19:59;18.38;;;9.07;;
44139;SDS011;29803;51.048;4.686;2023-02-28T01:22:29;25.30;;;9.70;;
44139;SDS011;29803;51.048;4.686;2023-02-28T01:24:59;20.80;;;10.15;;
44139;SDS011;29803;51.048;4.686;2023-02-28T01:27:30;19.67;;;9.20;;
44139;SDS011;29803;51.048;4.686;2023-02-28T01:30:00;19.27;;;10.05;;
44139;SDS011;29803;51.048;4.686;2023-02-28T01:32:32;21.73;;;9.55;;
44139;SDS011;29803;51.048;4.686;2023-02-28T01:35:02;21.17;;;9.50;;
44139;SDS011;29803;51.048;4.686;2023-02-28T01:37:33;19.83;;;10.50;;
44139;SDS011;29803;51.048;4.686;2023-02-28T01:40:03;23.17;;;9.65;;
44139;SDS011;29803;51.048;4.686;2023-02-28T01:42:34;17.05;;;9.32;;
44139;SDS011;29803;51.048;4.686;2023-02-28T01:47:58;22.65;;;10.40;;
44139;SDS011;29803;51.048;4.686;2023-02-28T01:50:34;19.30;;;10.15;;
44139;SDS011;29803;51.048;4.686;2023-02-28T01:53:10;22.35;;;10.13;;
44139;SDS011;29803;51.048;4.686;2023-02-28T01:55:47;23.75;;;10.02;;
44139;SDS011;29803;51.048;4.686;2023-02-28T01:58:20;23.77;;;10.80;;
44139;SDS011;29803;51.048;4.686;2023-02-28T02:00:50;21.70;;;10.05;;
44139;SDS011;29803;51.048;4.686;2023-02-28T02:03:21;25.58;;;10.75;;
44139;SDS011;29803;51.048;4.686;2023-02-28T02:05:52;19.63;;;10.05;;
44139;SDS011;29803;51.048;4.686;2023-02-28T02:08:24;21.20;;;11.02;;
44139;SDS011;29803;51.048;4.686;2023-02-28T02:10:59;25.05;;;11.27;;
44139;SDS011;29803;51.048;4.686;2023-02-28T02:19:53;27.42;;;11.25;;
44139;SDS011;29803;51.048;4.686;2023-02-28T02:22:53;27.95;;;11.38;;
44139;SDS011;29803;51.048;4.686;2023-02-28T02:32:10;30.73;;;10.95;;
44139;SDS011;29803;51.048;4.686;2023-02-28T02:35:03;22.85;;;10.88;;
44139;SDS011;29803;51.048;4.686;2023-02-28T02:40:16;23.85;;;10.95;;
44139;SDS011;29803;51.048;4.686;2023-02-28T02:48:11;25.77;;;12.38;;
44139;SDS011;29803;51.048;4.686;2023-02-28T02:50:48;27.63;;;11.43;;
44139;SDS011;29803;51.048;4.686;2023-02-28T02:53:24;25.35;;;11.52;;
44139;SDS011;29803;51.048;4.686;2023-02-28T02:56:00;23.73;;;10.90;;
44139;SDS011;29803;51.048;4.686;2023-02-28T02:58:35;22.77;;;11.00;;
44139;SDS011;29803;51.048;4.686;2023-02-28T03:01:12;25.25;;;11.32;;
44139;SDS011;29803;51.048;4.686;2023-02-28T03:03:58;27.55;;;10.90;;
44139;SDS011;29803;51.048;4.686;2023-02-28T03:06:31;25.60;;;11.95;;
44139;SDS011;29803;51.048;4.686;2023-02-28T03:09:01;25.13;;;11.23;;
44139;SDS011;29803;51.048;4.686;2023-02-28T03:11:34;26.10;;;11.43;;
44139;SDS011;29803;51.048;4.686;2023-02-28T03:26:02;24.75;;;11.02;;
44139;SDS011;29803;51.048;4.686;2023-02-28T03:34:20;23.85;;;11.10;;
44139;SDS011;29803;51.048;4.686;2023-02-28T03:36:57;28.90;;;12.77;;
44139;SDS011;29803;51.048;4.686;2023-02-28T03:39:35;24.23;;;11.13;;
44139;SDS011;29803;51.048;4.686;2023-02-28T03:42:11;24.98;;;12.77;;
44139;SDS011;29803;51.048;4.686;2023-02-28T03:45:01;22.48;;;11.13;;
44139;SDS011;29803;51.048;4.686;2023-02-28T03:47:50;20.70;;;10.23;;
44139;SDS011;29803;51.048;4.686;2023-02-28T03:50:22;25.27;;;11.57;;
44139;SDS011;29803;51.048;4.686;2023-02-28T03:55:59;23.52;;;11.43;;
44139;SDS011;29803;51.048;4.686;2023-02-28T04:01:31;22.38;;;11.05;;
44139;SDS011;29803;51.048;4.686;2023-02-28T04:04:07;27.25;;;11.20;;
44139;SDS011;29803;51.048;4.686;2023-02-28T04:06:38;29.38;;;11.82;;
44139;SDS011;29803;51.048;4.686;2023-02-28T04:09:10;21.02;;;10.48;;
44139;SDS011;29803;51.048;4.686;2023-02-28T04:11:42;34.75;;;10.90;;
44139;SDS011;29803;51.048;4.686;2023-02-28T04:14:15;23.92;;;11.02;;
44139;SDS011;29803;51.048;4.686;2023-02-28T04:16:46;28.38;;;11.57;;
44139;SDS011;29803;51.048;4.686;2023-02-28T04:19:17;25.40;;;10.88;;
44139;SDS011;29803;51.048;4.686;2023-02-28T04:21:50;27.42;;;12.45;;
44139;SDS011;29803;51.048;4.686;2023-02-28T04:24:23;29.13;;;11.68;;
44139;SDS011;29803;51.048;4.686;2023-02-28T04:26:55;30.80;;;12.65;;
44139;SDS011;29803;51.048;4.686;2023-02-28T04:29:28;23.70;;;11.48;;
44139;SDS011;29803;51.048;4.686;2023-02-28T04:32:00;28.48;;;11.45;;
44139;SDS011;29803;51.048;4.686;2023-02-28T04:34:31;23.38;;;11.05;;
44139;SDS011;29803;51.048;4.686;2023-02-28T04:37:03;28.65;;;11.82;;
44139;SDS011;29803;51.048;4.686;2023-02-28T04:39:35;24.80;;;10.48;;
44139;SDS011;29803;51.048;4.686;2023-02-28T04:42:06;27.77;;;11.50;;
44139;SDS011;29803;51.048;4.686;2023-02-28T04:44:37;31.77;;;11.35;;
44139;SDS011;29803;51.048;4.686;2023-02-28T04:47:07;28.08;;;11.23;;
44139;SDS011;29803;51.048;4.686;2023-02-28T04:49:38;26.15;;;10.95;;
44139;SDS011;29803;51.048;4.686;2023-02-28T04:52:09;28.25;;;10.60;;
44139;SDS011;29803;51.048;4.686;2023-02-28T04:54:40;24.70;;;11.85;;
44139;SDS011;29803;51.048;4.686;2023-02-28T04:57:11;26.77;;;11.35;;
44139;SDS011;29803;51.048;4.686;2023-02-28T04:59:41;30.35;;;11.23;;
44139;SDS011;29803;51.048;4.686;2023-02-28T05:02:12;26.17;;;11.18;;
44139;SDS011;29803;51.048;4.686;2023-02-28T05:04:42;23.67;;;10.80;;
44139;SDS011;29803;51.048;4.686;2023-02-28T05:07:13;22.88;;;10.88;;
44139;SDS011;29803;51.048;4.686;2023-02-28T05:09:43;30.13;;;11.20;;
44139;SDS011;29803;51.048;4.686;2023-02-28T05:12:14;23.25;;;11.35;;
44139;SDS011;29803;51.048;4.686;2023-02-28T05:14:44;23.80;;;10.90;;
44139;SDS011;29803;51.048;4.686;2023-02-28T05:17:15;24.35;;;10.93;;
44139;SDS011;29803;51.048;4.686;2023-02-28T05:19:45;21.33;;;10.10;;
44139;SDS011;29803;51.048;4.686;2023-02-28T05:22:16;29.88;;;11.30;;
44139;SDS011;29803;51.048;4.686;2023-02-28T05:24:46;23.80;;;10.15;;
44139;SDS011;29803;51.048;4.686;2023-02-28T05:27:17;21.17;;;9.93;;
44139;SDS011;29803;51.048;4.686;2023-02-28T05:29:47;24.38;;;11.25;;
44139;SDS011;29803;51.048;4.686;2023-02-28T05:32:18;32.78;;;11.30;;
44139;SDS011;29803;51.048;4.686;2023-02-28T05:34:48;22.67;;;10.77;;
44139;SDS011;29803;51.048;4.686;2023-02-28T05:37:19;20.15;;;10.20;;
44139;SDS011;29803;51.048;4.686;2023-02-28T05:39:49;22.30;;;9.98;;
44139;SDS011;29803;51.048;4.686;2023-02-28T05:42:20;27.02;;;10.82;;
44139;SDS011;29803;51.048;4.686;2023-02-28T05:44:50;23.38;;;10.75;;
44139;SDS011;29803;51.048;4.686;2023-02-28T05:47:21;20.02;;;10.68;;
44139;SDS011;29803;51.048;4.686;2023-02-28T05:49:52;23.67;;;11.55;;
44139;SDS011;29803;51.048;4.686;2023-02-28T05:52:23;22.35;;;10.90;;
44139;SDS011;29803;51.048;4.686;2023-02-28T05:54:53;23.52;;;11.88;;
44139;SDS011;29803;51.048;4.686;2023-02-28T05:57:24;26.30;;;11.05;;
44139;SDS011;29803;51.048;4.686;2023-02-28T05:59:54;26.98;;;11.27;;
44139;SDS011;29803;51.048;4.686;2023-02-28T06:02:24;25.60;;;10.70;;
44139;SDS011;29803;51.048;4.686;2023-02-28T06:04:55;25.52;;;10.43;;
44139;SDS011;29803;51.048;4.686;2023-02-28T06:07:25;22.90;;;9.90;;
44139;SDS011;29803;51.048;4.686;2023-02-28T06:09:56;21.30;;;9.55;;
44139;SDS011;29803;51.048;4.686;2023-02-28T06:12:26;25.40;;;10.70;;
44139;SDS011;29803;51.048;4.686;2023-02-28T06:14:57;20.80;;;10.40;;
44139;SDS011;29803;51.048;4.686;2023-02-28T06:17:27;25.05;;;10.07;;
44139;SDS011;29803;51.048;4.686;2023-02-28T06:19:58;19.10;;;10.85;;
44139;SDS011;29803;51.048;4.686;2023-02-28T06:22:28;23.85;;;10.20;;
44139;SDS011;29803;51.048;4.686;2023-02-28T06:24:59;26.75;;;10.43;;
44139;SDS011;29803;51.048;4.686;2023-02-28T06:27:30;23.85;;;10.75;;
44139;SDS011;29803;51.048;4.686;2023-02-28T06:30:01;19.30;;;9.27;;
44139;SDS011;29803;51.048;4.686;2023-02-28T06:32:33;23.02;;;10.77;;
44139;SDS011;29803;51.048;4.686;2023-02-28T06:35:03;23.63;;;10.10;;
44139;SDS011;29803;51.048;4.686;2023-02-28T06:37:37;19.05;;;9.65;;
44139;SDS011;29803;51.048;4.686;2023-02-28T06:40:08;21.55;;;10.32;;
44139;SDS011;29803;51.048;4.686;2023-02-28T06:42:40;20.10;;;9.43;;
44139;SDS011;29803;51.048;4.686;2023-02-28T06:45:11;20.30;;;9.63;;
44139;SDS011;29803;51.048;4.686;2023-02-28T06:47:45;21.98;;;9.77;;
44139;SDS011;29803;51.048;4.686;2023-02-28T06:50:15;17.95;;;9.88;;
44139;SDS011;29803;51.048;4.686;2023-02-28T06:52:49;26.35;;;10.45;;
44139;SDS011;29803;51.048;4.686;2023-02-28T06:55:23;18.98;;;9.88;;
44139;SDS011;29803;51.048;4.686;2023-02-28T06:57:54;24.92;;;10.05;;
44139;SDS011;29803;51.048;4.686;2023-02-28T07:00:25;22.30;;;10.30;;
44139;SDS011;29803;51.048;4.686;2023-02-28T07:02:56;24.70;;;10.98;;
44139;SDS011;29803;51.048;4.686;2023-02-28T07:05:27;19.23;;;9.88;;
44139;SDS011;29803;51.048;4.686;2023-02-28T07:07:57;19.55;;;10.02;;
44139;SDS011;29803;51.048;4.686;2023-02-28T07:10:30;19.90;;;10.30;;
44139;SDS011;29803;51.048;4.686;2023-02-28T07:13:01;16.90;;;9.25;;
44139;SDS011;29803;51.048;4.686;2023-02-28T07:15:31;17.65;;;9.95;;
44139;SDS011;29803;51.048;4.686;2023-02-28T07:18:02;17.65;;;8.50;;
44139;SDS011;29803;51.048;4.686;2023-02-28T07:20:36;18.35;;;8.30;;
44139;SDS011;29803;51.048;4.686;2023-02-28T07:23:06;18.65;;;9.32;;
44139;SDS011;29803;51.048;4.686;2023-02-28T07:25:37;18.52;;;8.38;;
44139;SDS011;29803;51.048;4.686;2023-02-28T07:28:07;18.58;;;8.23;;
44139;SDS011;29803;51.048;4.686;2023-02-28T07:30:38;15.52;;;7.78;;
44139;SDS011;29803;51.048;4.686;2023-02-28T07:33:09;14.82;;;7.78;;
44139;SDS011;29803;51.048;4.686;2023-02-28T07:35:40;12.48;;;7.72;;
44139;SDS011;29803;51.048;4.686;2023-02-28T07:38:11;16.25;;;7.70;;
44139;SDS011;29803;51.048;4.686;2023-02-28T07:40:43;15.90;;;7.97;;
44139;SDS011;29803;51.048;4.686;2023-02-28T07:43:14;14.40;;;7.40;;
44139;SDS011;29803;51.048;4.686;2023-02-28T07:45:44;12.48;;;7.82;;
44139;SDS011;29803;51.048;4.686;2023-02-28T07:48:15;13.35;;;7.63;;
44139;SDS011;29803;51.048;4.686;2023-02-28T07:50:53;11.55;;;7.38;;
44139;SDS011;29803;51.048;4.686;2023-02-28T07:53:25;23.40;;;7.35;;
44139;SDS011;29803;51.048;4.686;2023-02-28T07:55:57;12.25;;;6.55;;
44139;SDS011;29803;51.048;4.686;2023-02-28T07:58:29;14.90;;;6.55;;
44139;SDS011;29803;51.048;4.686;2023-02-28T08:03:49;15.57;;;6.10;;
44139;SDS011;29803;51.048;4.686;2023-02-28T08:06:21;13.10;;;5.90;;
44139;SDS011;29803;51.048;4.686;2023-02-28T08:08:53;10.23;;;5.25;;
44139;SDS011;29803;51.048;4.686;2023-02-28T08:11:23;17.77;;;6.53;;
44139;SDS011;29803;51.048;4.686;2023-02-28T08:13:54;11.68;;;5.88;;
44139;SDS011;29803;51.048;4.686;2023-02-28T08:16:24;13.40;;;6.35;;
44139;SDS011;29803;51.048;4.686;2023-02-28T08:18:55;9.63;;;5.50;;
44139;SDS011;29803;51.048;4.686;2023-02-28T08:21:25;10.75;;;5.85;;
44139;SDS011;29803;51.048;4.686;2023-02-28T08:23:56;10.93;;;4.80;;
44139;SDS011;29803;51.048;4.686;2023-02-28T08:26:27;7.85;;;4.45;;
44139;SDS011;29803;51.048;4.686;2023-02-28T08:28:57;9.20;;;3.70;;
44139;SDS011;29803;51.048;4.686;2023-02-28T08:31:28;7.32;;;3.80;;
44139;SDS011;29803;51.048;4.686;2023-02-28T08:34:00;8.05;;;4.00;;
44139;SDS011;29803;51.048;4.686;2023-02-28T08:36:37;10.25;;;4.40;;
44139;SDS011;29803;51.048;4.686;2023-02-28T08:39:14;8.50;;;3.67;;
44139;SDS011;29803;51.048;4.686;2023-02-28T08:41:45;8.77;;;3.92;;
44139;SDS011;29803;51.048;4.686;2023-02-28T08:44:15;9.55;;;4.10;;
44139;SDS011;29803;51.048;4.686;2023-02-28T08:46:46;7.45;;;3.67;;
44139;SDS011;29803;51.048;4.686;2023-02-28T08:49:16;6.85;;;3.55;;
44139;SDS011;29803;51.048;4.686;2023-02-28T08:51:47;6.43;;;3.75;;
44139;SDS011;29803;51.048;4.686;2023-02-28T08:54:18;6.78;;;3.67;;
44139;SDS011;29803;51.048;4.686;2023-02-28T08:56:49;12.20;;;4.35;;
44139;SDS011;29803;51.048;4.686;2023-02-28T08:59:20;9.88;;;3.78;;
44139;SDS011;29803;51.048;4.686;2023-02-28T09:01:50;9.63;;;3.10;;
44139;SDS011;29803;51.048;4.686;2023-02-28T09:04:21;5.97;;;3.28;;
44139;SDS011;29803;51.048;4.686;2023-02-28T09:06:52;6.57;;;3.38;;
44139;SDS011;29803;51.048;4.686;2023-02-28T09:09:22;6.68;;;3.33;;
44139;SDS011;29803;51.048;4.686;2023-02-28T09:11:55;7.28;;;3.30;;
44139;SDS011;29803;51.048;4.686;2023-02-28T09:14:26;6.18;;;3.03;;
44139;SDS011;29803;51.048;4.686;2023-02-28T09:16:56;5.97;;;3.53;;
44139;SDS011;29803;51.048;4.686;2023-02-28T09:19:28;9.70;;;3.42;;
44139;SDS011;29803;51.048;4.686;2023-02-28T09:21:58;5.25;;;2.80;;
44139;SDS011;29803;51.048;4.686;2023-02-28T09:24:29;5.50;;;2.92;;
44139;SDS011;29803;51.048;4.686;2023-02-28T09:27:01;5.38;;;2.75;;
44139;SDS011;29803;51.048;4.686;2023-02-28T09:29:32;4.82;;;2.50;;
44139;SDS011;29803;51.048;4.686;2023-02-28T09:32:04;9.15;;;3.38;;
44139;SDS011;29803;51.048;4.686;2023-02-28T09:34:35;4.57;;;2.45;;
44139;SDS011;29803;51.048;4.686;2023-02-28T09:37:07;6.50;;;2.20;;
44139;SDS011;29803;51.048;4.686;2023-02-28T09:39:37;3.03;;;2.10;;
44139;SDS011;29803;51.048;4.686;2023-02-28T09:42:11;3.00;;;2.03;;
44139;SDS011;29803;51.048;4.686;2023-02-28T09:44:51;6.32;;;2.65;;
44139;SDS011;29803;51.048;4.686;2023-02-28T09:50:17;3.85;;;2.80;;
44139;SDS011;29803;51.048;4.686;2023-02-28T09:52:51;4.18;;;2.30;;
44139;SDS011;29803;51.048;4.686;2023-02-28T09:58:20;6.32;;;2.42;;
44139;SDS011;29803;51.048;4.686;2023-02-28T10:00:58;4.10;;;2.30;;
44139;SDS011;29803;51.048;4.686;2023-02-28T10:06:41;2.90;;;1.67;;
44139;SDS011;29803;51.048;4.686;2023-02-28T10:12:06;2.30;;;1.83;;
44139;SDS011;29803;51.048;4.686;2023-02-28T10:14:39;4.32;;;2.33;;
44139;SDS011;29803;51.048;4.686;2023-02-28T10:17:18;3.97;;;1.70;;
44139;SDS011;29803;51.048;4.686;2023-02-28T10:22:49;3.95;;;2.22;;
44139;SDS011;29803;51.048;4.686;2023-02-28T10:25:28;4.95;;;2.40;;
44139;SDS011;29803;51.048;4.686;2023-02-28T10:28:05;2.92;;;2.15;;
44139;SDS011;29803;51.048;4.686;2023-02-28T10:36:00;4.25;;;2.10;;
44139;SDS011;29803;51.048;4.686;2023-02-28T10:38:34;4.28;;;1.88;;
44139;SDS011;29803;51.048;4.686;2023-02-28T10:41:08;3.65;;;2.40;;
44139;SDS011;29803;51.048;4.686;2023-02-28T10:43:40;4.30;;;2.40;;
44139;SDS011;29803;51.048;4.686;2023-02-28T10:46:15;3.63;;;1.88;;
44139;SDS011;29803;51.048;4.686;2023-02-28T10:51:49;4.65;;;2.17;;
44139;SDS011;29803;51.048;4.686;2023-02-28T11:02:51;2.97;;;2.22;;
44139;SDS011;29803;51.048;4.686;2023-02-28T11:08:11;4.20;;;2.03;;
44139;SDS011;29803;51.048;4.686;2023-02-28T11:10:45;4.85;;;2.28;;
44139;SDS011;29803;51.048;4.686;2023-02-28T11:13:17;3.92;;;2.30;;
44139;SDS011;29803;51.048;4.686;2023-02-28T11:15:52;4.82;;;1.98;;
44139;SDS011;29803;51.048;4.686;2023-02-28T11:20:59;4.15;;;2.50;;
44139;SDS011;29803;51.048;4.686;2023-02-28T11:23:32;3.22;;;1.88;;
44139;SDS011;29803;51.048;4.686;2023-02-28T11:26:06;3.60;;;2.20;;
44139;SDS011;29803;51.048;4.686;2023-02-28T11:28:40;6.43;;;2.40;;
44139;SDS011;29803;51.048;4.686;2023-02-28T11:33:45;4.93;;;2.00;;
44139;SDS011;29803;51.048;4.686;2023-02-28T11:36:21;4.03;;;2.10;;
44139;SDS011;29803;51.048;4.686;2023-02-28T11:38:56;5.65;;;2.35;;
44139;SDS011;29803;51.048;4.686;2023-02-28T11:41:36;2.53;;;1.58;;
44139;SDS011;29803;51.048;4.686;2023-02-28T11:47:21;4.25;;;1.90;;
44139;SDS011;29803;51.048;4.686;2023-02-28T11:50:17;3.67;;;1.80;;
44139;SDS011;29803;51.048;4.686;2023-02-28T11:52:57;2.95;;;2.10;;
44139;SDS011;29803;51.048;4.686;2023-02-28T11:55:42;3.30;;;2.03;;
44139;SDS011;29803;51.048;4.686;2023-02-28T11:58:33;4.28;;;1.98;;
44139;SDS011;29803;51.048;4.686;2023-02-28T12:01:28;4.60;;;2.30;;
44139;SDS011;29803;51.048;4.686;2023-02-28T12:06:57;3.20;;;2.22;;
44139;SDS011;29803;51.048;4.686;2023-02-28T12:29:40;4.05;;;2.20;;
44139;SDS011;29803;51.048;4.686;2023-02-28T12:32:26;4.97;;;2.10;;
44139;SDS011;29803;51.048;4.686;2023-02-28T12:37:57;5.45;;;2.70;;
44139;SDS011;29803;51.048;4.686;2023-02-28T12:40:41;3.22;;;2.38;;
44139;SDS011;29803;51.048;4.686;2023-02-28T12:43:16;2.35;;;2.03;;
44139;SDS011;29803;51.048;4.686;2023-02-28T12:45:50;10.50;;;2.90;;
44139;SDS011;29803;51.048;4.686;2023-02-28T12:48:27;4.32;;;2.90;;
44139;SDS011;29803;51.048;4.686;2023-02-28T12:51:02;7.03;;;2.50;;
44139;SDS011;29803;51.048;4.686;2023-02-28T12:53:49;4.78;;;2.88;;
44139;SDS011;29803;51.048;4.686;2023-02-28T12:59:45;7.95;;;2.42;;
44139;SDS011;29803;51.048;4.686;2023-02-28T13:05:44;4.43;;;2.55;;
44139;SDS011;29803;51.048;4.686;2023-02-28T13:14:26;6.97;;;2.83;;
44139;SDS011;29803;51.048;4.686;2023-02-28T13:31:08;4.45;;;2.50;;
44139;SDS011;29803;51.048;4.686;2023-02-28T13:36:29;5.18;;;2.55;;
44139;SDS011;29803;51.048;4.686;2023-02-28T13:39:02;4.20;;;2.80;;
44139;SDS011;29803;51.048;4.686;2023-02-28T13:41:53;9.50;;;3.55;;
44139;SDS011;29803;51.048;4.686;2023-02-28T13:44:24;9.93;;;3.83;;
44139;SDS011;29803;51.048;4.686;2023-02-28T13:49:27;4.70;;;2.58;;
44139;SDS011;29803;51.048;4.686;2023-02-28T14:00:28;8.68;;;2.58;;
44139;SDS011;29803;51.048;4.686;2023-02-28T14:18:06;4.70;;;2.80;;
44139;SDS011;29803;51.048;4.686;2023-02-28T14:20:43;6.43;;;2.78;;
44139;SDS011;29803;51.048;4.686;2023-02-28T14:32:32;7.40;;;2.97;;
44139;SDS011;29803;51.048;4.686;2023-02-28T14:38:16;3.30;;;2.63;;
44139;SDS011;29803;51.048;4.686;2023-02-28T14:40:52;5.60;;;2.53;;
44139;SDS011;29803;51.048;4.686;2023-02-28T14:43:29;5.15;;;2.97;;
44139;SDS011;29803;51.048;4.686;2023-02-28T14:46:01;6.25;;;3.10;;
44139;SDS011;29803;51.048;4.686;2023-02-28T14:48:36;6.38;;;3.33;;
44139;SDS011;29803;51.048;4.686;2023-02-28T14:51:08;7.45;;;3.08;;
44139;SDS011;29803;51.048;4.686;2023-02-28T14:53:39;8.77;;;3.25;;
44139;SDS011;29803;51.048;4.686;2023-02-28T14:56:19;11.23;;;3.92;;
44139;SDS011;29803;51.048;4.686;2023-02-28T14:58:53;6.10;;;3.42;;
44139;SDS011;29803;51.048;4.686;2023-02-28T15:01:25;7.82;;;3.13;;
44139;SDS011;29803;51.048;4.686;2023-02-28T15:03:57;7.40;;;3.55;;
44139;SDS011;29803;51.048;4.686;2023-02-28T15:06:29;7.13;;;2.92;;
44139;SDS011;29803;51.048;4.686;2023-02-28T15:09:14;5.45;;;3.38;;
44139;SDS011;29803;51.048;4.686;2023-02-28T15:14:20;6.05;;;2.85;;
44139;SDS011;29803;51.048;4.686;2023-02-28T15:16:53;7.70;;;3.33;;
44139;SDS011;29803;51.048;4.686;2023-02-28T15:19:30;7.15;;;3.47;;
44139;SDS011;29803;51.048;4.686;2023-02-28T15:22:06;5.38;;;3.10;;
44139;SDS011;29803;51.048;4.686;2023-02-28T15:24:43;7.35;;;3.05;;
44139;SDS011;29803;51.048;4.686;2023-02-28T15:27:21;6.72;;;3.50;;
44139;SDS011;29803;51.048;4.686;2023-02-28T15:29:55;6.05;;;3.45;;
44139;SDS011;29803;51.048;4.686;2023-02-28T15:32:29;4.20;;;2.67;;
44139;SDS011;29803;51.048;4.686;2023-02-28T15:41:02;6.07;;;3.10;;
44139;SDS011;29803;51.048;4.686;2023-02-28T15:43:38;7.57;;;2.88;;
44139;SDS011;29803;51.048;4.686;2023-02-28T15:46:11;6.93;;;3.58;;
44139;SDS011;29803;51.048;4.686;2023-02-28T15:48:45;4.45;;;3.17;;
44139;SDS011;29803;51.048;4.686;2023-02-28T15:51:35;4.97;;;3.13;;
44139;SDS011;29803;51.048;4.686;2023-02-28T15:54:08;11.10;;;3.35;;
44139;SDS011;29803;51.048;4.686;2023-02-28T15:56:45;7.20;;;4.03;;
44139;SDS011;29803;51.048;4.686;2023-02-28T15:59:21;6.45;;;3.15;;
44139;SDS011;29803;51.048;4.686;2023-02-28T16:04:54;7.32;;;2.85;;
44139;SDS011;29803;51.048;4.686;2023-02-28T16:07:27;5.47;;;3.20;;
44139;SDS011;29803;51.048;4.686;2023-02-28T16:09:58;6.07;;;2.95;;
44139;SDS011;29803;51.048;4.686;2023-02-28T16:12:30;3.55;;;2.53;;
44139;SDS011;29803;51.048;4.686;2023-02-28T16:15:03;6.85;;;3.15;;
44139;SDS011;29803;51.048;4.686;2023-02-28T16:17:38;4.30;;;2.80;;
44139;SDS011;29803;51.048;4.686;2023-02-28T16:22:59;6.10;;;3.00;;
44139;SDS011;29803;51.048;4.686;2023-02-28T16:25:34;5.55;;;2.78;;
44139;SDS011;29803;51.048;4.686;2023-02-28T16:28:08;7.07;;;3.03;;
44139;SDS011;29803;51.048;4.686;2023-02-28T16:30:47;8.38;;;3.83;;
44139;SDS011;29803;51.048;4.686;2023-02-28T16:33:21;12.02;;;3.17;;
44139;SDS011;29803;51.048;4.686;2023-02-28T16:35:52;5.07;;;3.20;;
44139;SDS011;29803;51.048;4.686;2023-02-28T16:38:22;7.05;;;2.72;;
44139;SDS011;29803;51.048;4.686;2023-02-28T16:40:55;11.90;;;3.28;;
44139;SDS011;29803;51.048;4.686;2023-02-28T16:43:28;7.15;;;3.10;;
44139;SDS011;29803;51.048;4.686;2023-02-28T16:45:59;5.53;;;3.33;;
44139;SDS011;29803;51.048;4.686;2023-02-28T16:48:31;5.35;;;3.50;;
44139;SDS011;29803;51.048;4.686;2023-02-28T16:51:01;7.03;;;3.20;;
44139;SDS011;29803;51.048;4.686;2023-02-28T16:53:34;7.82;;;3.58;;
44139;SDS011;29803;51.048;4.686;2023-02-28T16:56:04;10.00;;;3.70;;
44139;SDS011;29803;51.048;4.686;2023-02-28T16:58:36;6.40;;;3.20;;
44139;SDS011;29803;51.048;4.686;2023-02-28T17:01:07;8.55;;;3.65;;
44139;SDS011;29803;51.048;4.686;2023-02-28T17:03:37;7.15;;;3.75;;
44139;SDS011;29803;51.048;4.686;2023-02-28T17:09:00;6.68;;;3.40;;
44139;SDS011;29803;51.048;4.686;2023-02-28T17:11:30;5.22;;;3.60;;
44139;SDS011;29803;51.048;4.686;2023-02-28T17:14:01;8.40;;;3.47;;
44139;SDS011;29803;51.048;4.686;2023-02-28T17:16:32;11.20;;;3.60;;
44139;SDS011;29803;51.048;4.686;2023-02-28T17:19:06;6.05;;;3.42;;
44139;SDS011;29803;51.048;4.686;2023-02-28T17:21:41;7.00;;;3.83;;
44139;SDS011;29803;51.048;4.686;2023-02-28T17:24:12;7.22;;;3.65;;
44139;SDS011;29803;51.048;4.686;2023-02-28T17:26:42;6.40;;;3.30;;
44139;SDS011;29803;51.048;4.686;2023-02-28T17:29:14;8.32;;;3.72;;
44139;SDS011;29803;51.048;4.686;2023-02-28T17:31:47;8.85;;;4.13;;
44139;SDS011;29803;51.048;4.686;2023-02-28T17:34:17;9.93;;;4.28;;
44139;SDS011;29803;51.048;4.686;2023-02-28T17:36:50;13.00;;;4.80;;
44139;SDS011;29803;51.048;4.686;2023-02-28T17:39:22;9.30;;;4.25;;
44139;SDS011;29803;51.048;4.686;2023-02-28T17:41:54;11.23;;;4.68;;
44139;SDS011;29803;51.048;4.686;2023-02-28T17:44:25;11.80;;;5.28;;
44139;SDS011;29803;51.048;4.686;2023-02-28T17:46:56;14.77;;;5.25;;
44139;SDS011;29803;51.048;4.686;2023-02-28T17:49:27;12.20;;;5.07;;
44139;SDS011;29803;51.048;4.686;2023-02-28T17:51:57;15.38;;;5.18;;
44139;SDS011;29803;51.048;4.686;2023-02-28T17:54:28;9.80;;;5.05;;
44139;SDS011;29803;51.048;4.686;2023-02-28T17:56:58;11.88;;;4.20;;
44139;SDS011;29803;51.048;4.686;2023-02-28T17:59:29;11.15;;;4.78;;
44139;SDS011;29803;51.048;4.686;2023-02-28T18:02:03;12.17;;;4.40;;
44139;SDS011;29803;51.048;4.686;2023-02-28T18:04:33;13.20;;;5.15;;
44139;SDS011;29803;51.048;4.686;2023-02-28T18:07:05;13.32;;;4.95;;
44139;SDS011;29803;51.048;4.686;2023-02-28T18:09:36;11.32;;;5.45;;
44139;SDS011;29803;51.048;4.686;2023-02-28T18:12:07;12.27;;;5.47;;
44139;SDS011;29803;51.048;4.686;2023-02-28T18:14:38;13.68;;;6.30;;
44139;SDS011;29803;51.048;4.686;2023-02-28T18:17:09;17.63;;;6.18;;
44139;SDS011;29803;51.048;4.686;2023-02-28T18:19:42;14.73;;;6.32;;
44139;SDS011;29803;51.048;4.686;2023-02-28T18:22:12;12.10;;;5.85;;
44139;SDS011;29803;51.048;4.686;2023-02-28T18:24:43;14.75;;;6.15;;
44139;SDS011;29803;51.048;4.686;2023-02-28T18:27:13;14.05;;;5.65;;
44139;SDS011;29803;51.048;4.686;2023-02-28T18:29:44;16.17;;;6.38;;
44139;SDS011;29803;51.048;4.686;2023-02-28T18:32:14;13.90;;;6.18;;
44139;SDS011;29803;51.048;4.686;2023-02-28T18:34:45;10.70;;;5.75;;